Terminal Aerodrome Forecast
Issued by NWS Quad Cities IA IL

Home | Current Version | Previous Version | Text Only | Print | Product List | Glossary On
Versions: 1 2 3 4 5 6 7 8 9 10 11 12 13 14 15 16 17 18 19 20 21 22 23 24 25 26 27 28 29 30 31 32 33 34
000
FTUS43 KDVN 300249 AAB
TAFMLI
TAF AMD
KMLI 300249Z 3003/3024 04003KT 4SM BR SCT008
      TEMPO 3003/3005 1SM BR BKN008
     FM300600 00000KT 1SM BR OVC005
      TEMPO 3009/3013 1/2SM FG VV002
     FM301500 VRB03KT 3SM BR BKN008
     FM301600 14004KT P6SM SCT025=

USA.gov is the U.S. government's official web portal to all federal, state and local government web resources and services.